Time;durP1;ratioP1;P1;durP2;ratioP2;P2;SDS_P1;SDS_P2;PMS_P1;PMS_P2;Temp;Humidity;BMP_temperature;BMP_pressure;BME280_temperature;BME280_humidity;BME280_pressure;Samples;Min_cycle;Max_cycle;Signal;HPM_P1;HPM_P2
2022/04/17 00:02:24;;;;;;;20.67;1.65;;;;;;;20.18;47.53;100971.78;7318160;19;129277;-40
2022/04/17 00:04:49;;;;;;;22.77;1.85;;;;;;;20.22;47.15;100969.81;7317175;19;129690;-36
2022/04/17 00:07:15;;;;;;;25.50;2.17;;;;;;;20.26;47.09;100964.28;7314581;19;148052;-39
2022/04/17 00:09:40;;;;;;;20.90;1.73;;;;;;;20.21;47.26;100968.16;7314308;19;158746;-36
2022/04/17 00:12:06;;;;;;;19.30;1.58;;;;;;;20.24;46.87;100968.78;7315138;19;154737;-36
2022/04/17 00:14:34;;;;;;;21.15;1.80;;;;;;;20.30;47.65;100967.53;7315958;19;129197;-38
2022/04/17 00:16:59;;;;;;;19.23;1.63;;;;;;;20.40;48.15;100950.34;7314090;19;158551;-39
2022/04/17 00:19:24;;;;;;;19.17;1.90;;;;;;;20.41;48.51;100949.44;7314363;19;152570;-41
2022/04/17 00:21:49;;;;;;;43.47;3.88;;;;;;;20.48;49.67;100963.75;7316937;19;128809;-39
2022/04/17 00:24:15;;;;;;;21.08;2.05;;;;;;;20.50;49.46;100959.28;7315463;19;153367;-38
2022/04/17 00:26:41;;;;;;;22.27;2.03;;;;;;;20.54;49.40;100958.16;7315582;19;130125;-40
2022/04/17 00:29:06;;;;;;;17.63;1.65;;;;;;;20.53;50.18;100956.44;7315691;19;129663;-39
2022/04/17 00:31:31;;;;;;;17.35;1.55;;;;;;;20.56;50.36;100961.50;7316410;19;132862;-40
2022/04/17 00:33:57;;;;;;;16.53;1.63;;;;;;;20.54;50.47;100953.75;7314707;19;154690;-39
2022/04/17 00:36:22;;;;;;;23.27;2.17;;;;;;;20.53;51.04;100956.44;7314693;19;143770;-36
2022/04/17 00:38:47;;;;;;;22.70;1.97;;;;;;;20.55;50.38;100954.59;7314743;19;158268;-41
2022/04/17 00:41:12;;;;;;;22.23;2.00;;;;;;;20.56;50.51;100956.28;7316304;19;143796;-36
2022/04/17 00:43:48;;;;;;;19.17;1.70;;;;;;;20.56;51.17;100944.03;7312961;19;153535;-41
2022/04/17 00:46:14;;;;;;;21.20;1.85;;;;;;;20.28;48.58;100946.75;7315039;19;132199;-40
2022/04/17 00:48:40;;;;;;;21.50;1.87;;;;;;;20.13;48.56;100944.28;7315850;19;129175;-40
2022/04/17 00:51:06;;;;;;;17.45;1.45;;;;;;;20.08;48.07;100938.50;7315941;19;129349;-39
2022/04/17 00:53:31;;;;;;;21.02;1.70;;;;;;;20.09;48.48;100945.38;7314302;19;130269;-40
2022/04/17 00:55:57;;;;;;;26.33;2.20;;;;;;;20.09;47.31;100945.38;7315262;19;129221;-41
2022/04/17 00:58:24;;;;;;;23.83;2.10;;;;;;;20.13;47.91;100933.81;7315813;19;129444;-36
2022/04/17 01:00:50;;;;;;;24.67;2.17;;;;;;;20.18;47.35;100927.38;7313014;19;128665;-37
2022/04/17 01:03:17;;;;;;;25.67;2.25;;;;;;;20.20;47.22;100932.50;7315633;19;128896;-41
2022/04/17 01:05:43;;;;;;;19.75;1.70;;;;;;;20.11;47.85;100917.41;7314823;19;129055;-40
2022/04/17 01:08:12;;;;;;;22.27;2.10;;;;;;;20.23;47.36;100932.34;7315628;19;130312;-40
2022/04/17 01:10:38;;;;;;;18.30;1.60;;;;;;;20.23;47.35;100935.78;7313906;19;128901;-40
2022/04/17 01:13:04;;;;;;;23.00;1.97;;;;;;;20.21;47.67;100927.19;7313986;19;128976;-40
2022/04/17 01:15:30;;;;;;;40.55;3.42;;;;;;;20.23;47.33;100929.72;7315322;19;129581;-41
2022/04/17 01:17:55;;;;;;;20.60;1.63;;;;;;;20.45;47.07;100922.16;7315775;19;129282;-38
2022/04/17 01:20:22;;;;;;;23.27;2.10;;;;;;;20.40;48.07;100919.00;7314201;19;129448;-38
2022/04/17 01:22:49;;;;;;;22.55;1.92;;;;;;;20.41;48.39;100910.25;7315871;19;129077;-39
2022/04/17 01:27:58;;;;;;;19.48;1.70;;;;;;;20.53;49.60;100927.72;7316319;19;129301;-40
2022/04/17 01:30:24;;;;;;;22.13;1.80;;;;;;;20.53;50.18;100923.34;7312975;19;129054;-40
2022/04/17 01:32:49;;;;;;;23.23;2.15;;;;;;;20.54;50.75;100926.78;7313874;19;129892;-37
2022/04/17 01:35:14;;;;;;;31.00;2.65;;;;;;;20.55;50.19;100923.22;7312849;19;158814;-37
2022/04/17 01:37:39;;;;;;;15.43;1.55;;;;;;;20.56;50.71;100932.78;7310690;19;159264;-38
2022/04/17 01:40:06;;;;;;;23.20;2.03;;;;;;;20.46;50.84;100909.00;7311512;19;154413;-38
2022/04/17 01:42:31;;;;;;;19.73;1.80;;;;;;;20.54;49.71;100917.16;7314636;19;129119;-39
2022/04/17 01:44:56;;;;;;;27.00;2.30;;;;;;;20.54;50.84;100916.34;7312838;19;158396;-38
2022/04/17 01:47:21;;;;;;;22.40;1.97;;;;;;;20.44;49.30;100912.66;7312486;19;158513;-38
2022/04/17 01:49:47;;;;;;;23.25;2.05;;;;;;;20.07;47.74;100905.47;7311732;19;154434;-39
2022/04/17 01:52:12;;;;;;;19.85;1.85;;;;;;;20.11;48.22;100915.66;7311941;19;151568;-38
2022/04/17 01:54:37;;;;;;;25.13;2.30;;;;;;;20.06;48.04;100903.81;7314349;19;129242;-41
2022/04/17 01:57:03;;;;;;;27.63;2.30;;;;;;;20.15;47.83;100914.53;7313993;19;130308;-41
2022/04/17 01:59:28;;;;;;;21.80;1.83;;;;;;;20.16;47.33;100920.59;7312512;19;128881;-38
2022/04/17 02:01:54;;;;;;;24.13;2.00;;;;;;;20.17;47.58;100911.81;7313742;19;129436;-40
2022/04/17 02:04:20;;;;;;;28.33;2.22;;;;;;;20.16;48.00;100915.38;7313668;19;129107;-39
2022/04/17 02:06:46;;;;;;;24.08;2.13;;;;;;;20.17;47.41;100909.22;7314204;19;130705;-40
2022/04/17 02:09:13;;;;;;;16.70;1.73;;;;;;;20.19;47.53;100909.97;7312696;19;129059;-39
2022/04/17 02:11:39;;;;;;;22.45;1.85;;;;;;;20.19;47.02;100915.19;7313605;19;128815;-39
2022/04/17 02:14:08;;;;;;;15.40;1.45;;;;;;;20.11;47.77;100901.75;7313488;19;131167;-38
2022/04/17 02:16:33;;;;;;;19.95;1.65;;;;;;;20.24;47.04;100919.19;7313314;19;132324;-40
2022/04/17 02:19:00;;;;;;;21.75;1.85;;;;;;;20.51;47.73;100909.53;7314313;19;129539;-37
2022/04/17 02:21:26;;;;;;;;;;;;;;;20.53;48.67;100922.50;7315186;19;129488;-40
2022/04/17 02:23:51;;;;;;;30.02;2.85;;;;;;;20.48;49.01;100928.03;7312587;19;131648;-37
2022/04/17 02:26:17;;;;;;;24.80;2.13;;;;;;;20.45;49.54;100915.16;7311516;19;158028;-39
2022/04/17 02:28:42;;;;;;;24.25;2.17;;;;;;;20.49;49.90;100911.41;7313645;19;128904;-41
2022/04/17 02:31:09;;;;;;;23.55;2.03;;;;;;;20.51;49.68;100900.88;7312963;19;147212;-40
2022/04/17 02:33:35;;;;;;;18.80;1.70;;;;;;;20.52;50.93;100907.75;7311633;19;129838;-39
2022/04/17 02:36:00;;;;;;;6.63;0.82;;;;;;;20.48;50.61;100895.84;7311727;19;130146;-39
2022/04/17 02:38:26;;;;;;;22.92;2.13;;;;;;;20.55;49.86;100899.72;7312896;19;129451;-38
2022/04/17 02:40:54;;;;;;;21.90;1.88;;;;;;;20.54;51.52;100903.28;7309105;19;153916;-39
2022/04/17 02:43:19;;;;;;;21.20;2.22;;;;;;;20.53;50.76;100909.44;7312970;19;129521;-38
2022/04/17 02:45:44;;;;;;;19.52;1.88;;;;;;;20.54;50.83;100905.91;7311822;19;130150;-40
2022/04/17 02:48:10;;;;;;;19.43;1.77;;;;;;;20.45;49.51;100906.50;7312078;19;151117;-40
2022/04/17 02:50:35;;;;;;;14.35;1.25;;;;;;;20.17;48.04;100890.94;7308865;19;154058;-41
2022/04/17 02:53:00;;;;;;;21.48;1.98;;;;;;;20.10;48.46;100893.06;7308969;19;158733;-39
2022/04/17 02:55:26;;;;;;;43.90;3.90;;;;;;;20.10;48.04;100894.84;7310524;19;130971;-39
2022/04/17 02:57:52;;;;;;;18.50;1.73;;;;;;;20.12;47.75;100892.97;7312620;19;128950;-35
2022/04/17 03:00:17;;;;;;;29.42;2.53;;;;;;;20.11;47.95;100889.53;7310162;19;129073;-39
2022/04/17 03:05:39;;;;;;;41.20;3.35;;;;;;;20.09;47.55;100877.50;7310716;19;129228;-35
2022/04/17 03:08:07;;;;;;;19.85;1.73;;;;;;;20.17;47.16;100890.94;7313043;19;129754;-37
2022/04/17 03:10:33;;;;;;;19.15;1.70;;;;;;;20.16;47.38;100899.72;7309974;19;129038;-39
2022/04/17 03:12:58;;;;;;;19.58;1.52;;;;;;;20.18;47.05;100895.25;7309894;19;129972;-42
2022/04/17 03:15:23;;;;;;;23.17;2.00;;;;;;;20.22;46.96;100894.09;7309385;19;158532;-39
2022/04/17 03:17:49;;;;;;;21.33;1.98;;;;;;;20.45;47.34;100896.88;7311858;19;128833;-37
2022/04/17 03:20:14;;;;;;;28.38;2.50;;;;;;;20.47;47.90;100894.16;7309186;19;141767;-37
2022/04/17 03:22:41;;;;;;;19.25;1.80;;;;;;;20.46;49.31;100902.97;7311326;19;129500;-40
2022/04/17 03:25:06;;;;;;;;;;;;;;;20.48;49.85;100896.69;7311781;19;131017;-39
2022/04/17 03:27:32;;;;;;;16.35;1.42;;;;;;;20.49;49.02;100897.53;7311451;19;128836;-40
2022/04/17 03:29:57;;;;;;;21.27;1.93;;;;;;;20.49;50.65;100902.75;7309017;19;154383;-40
2022/04/17 03:32:23;;;;;;;29.48;2.75;;;;;;;20.52;50.41;100892.09;7308721;19;157596;-39
2022/04/17 03:34:48;;;;;;;38.38;3.63;;;;;;;20.52;50.62;100897.31;7310621;19;130298;-41
2022/04/17 03:37:16;;;;;;;14.90;1.52;;;;;;;20.53;50.13;100896.38;7309292;19;154676;-37
2022/04/17 03:39:42;;;;;;;21.83;2.05;;;;;;;20.53;51.13;100909.44;7310694;19;129099;-35
2022/04/17 03:42:08;;;;;;;22.17;2.10;;;;;;;20.51;50.30;100900.88;7311108;19;129243;-36
2022/04/17 03:44:33;;;;;;;17.23;1.52;;;;;;;20.44;50.70;100889.16;7311962;19;129809;-33
2022/04/17 03:46:59;;;;;;;21.13;1.88;;;;;;;20.45;49.13;100893.44;7309283;19;155911;-40
2022/04/17 03:49:25;;;;;;;23.83;2.15;;;;;;;20.14;48.41;100885.88;7310711;19;128905;-38
2022/04/17 03:51:50;;;;;;;29.95;2.63;;;;;;;20.10;48.13;100892.22;7311580;19;129231;-39
2022/04/17 03:54:16;;;;;;;15.63;1.60;;;;;;;20.07;48.18;100889.81;7310170;19;151361;-42
2022/04/17 03:56:43;;;;;;;21.77;2.10;;;;;;;20.01;48.08;100874.56;7310418;19;129066;-41
2022/04/17 03:59:08;;;;;;;21.08;1.88;;;;;;;20.02;47.51;100882.28;7311108;19;129242;-39
2022/04/17 04:01:33;;;;;;;19.75;1.67;;;;;;;20.13;47.76;100894.66;7314760;19;157365;-41
2022/04/17 04:03:59;;;;;;;19.35;1.73;;;;;;;20.12;47.61;100896.44;7315317;19;159107;-40
2022/04/17 04:06:24;;;;;;;18.67;1.70;;;;;;;20.16;47.50;100894.50;7316683;19;129628;-38
2022/04/17 04:08:49;;;;;;;23.17;2.03;;;;;;;20.15;47.39;100898.03;7315771;19;153505;-38
2022/04/17 04:11:15;;;;;;;23.80;2.22;;;;;;;20.16;47.69;100891.88;7315760;19;159091;-34
2022/04/17 04:13:42;;;;;;;20.27;1.88;;;;;;;20.18;47.21;100896.06;7316118;19;130305;-38
2022/04/17 04:16:07;;;;;;;20.48;1.70;;;;;;;20.18;47.67;100892.63;7316680;19;129922;-35
2022/04/17 04:18:32;;;;;;;8.25;1.13;;;;;;;20.43;47.68;100887.47;7317620;19;128998;-41
2022/04/17 04:20:58;;;;;;;22.75;1.92;;;;;;;20.48;48.00;100877.53;7312297;19;158289;-38
2022/04/17 04:23:23;;;;;;;19.92;1.60;;;;;;;20.47;48.27;100878.50;7315777;19;158612;-41
2022/04/17 04:25:48;;;;;;;24.75;2.47;;;;;;;20.45;50.07;100885.59;7316173;19;129726;-35
2022/04/17 04:30:57;;;;;;;15.35;1.63;;;;;;;20.48;48.74;100891.44;7314405;19;128859;-39
2022/04/17 04:33:22;;;;;;;19.63;1.85;;;;;;;20.51;49.51;100879.97;7315729;19;131695;-39
2022/04/17 04:35:48;;;;;;;12.57;1.42;;;;;;;20.51;49.30;100875.56;7315016;19;153373;-33
2022/04/17 04:38:13;;;;;;;32.80;3.15;;;;;;;20.54;50.05;100877.16;7315782;19;154034;-36
2022/04/17 04:40:38;;;;;;;20.08;1.83;;;;;;;20.52;50.71;100874.66;7312633;19;158286;-32
2022/04/17 04:43:04;;;;;;;19.05;1.60;;;;;;;20.52;50.09;100871.19;7315527;19;158658;-36
2022/04/17 04:48:14;;;;;;;28.25;2.63;;;;;;;20.31;48.22;100873.44;7317582;19;129092;-34
2022/04/17 04:50:39;;;;;;;18.08;1.88;;;;;;;20.08;48.57;100870.63;7313699;19;130171;-34
2022/04/17 04:53:04;;;;;;;15.38;1.45;;;;;;;20.04;47.74;100867.38;7315073;19;130017;-43
2022/04/17 04:55:30;;;;;;;33.92;3.25;;;;;;;20.09;48.19;100867.91;7315019;19;129013;-37
2022/04/17 04:57:55;;;;;;;19.73;1.90;;;;;;;20.09;47.91;100877.50;7314668;19;154282;-34
2022/04/17 05:00:21;;;;;;;27.52;2.60;;;;;;;20.09;47.65;100867.91;7313043;19;147323;-34
2022/04/17 05:02:46;;;;;;;22.58;1.95;;;;;;;20.10;47.45;100873.94;7315593;19;131089;-33
2022/04/17 05:05:11;;;;;;;24.23;2.33;;;;;;;20.14;47.36;100873.69;7315526;19;128806;-35
2022/04/17 05:07:37;;;;;;;18.70;1.52;;;;;;;20.15;47.37;100877.13;7313615;19;153709;-37
2022/04/17 05:10:05;;;;;;;17.87;1.63;;;;;;;20.14;47.47;100876.28;7314725;19;129380;-35
2022/04/17 05:12:30;;;;;;;20.88;1.88;;;;;;;20.18;47.15;100874.34;7312808;19;131764;-36
2022/04/17 05:14:55;;;;;;;20.35;1.83;;;;;;;20.19;46.80;100865.56;7315270;19;129340;-37
2022/04/17 05:17:21;;;;;;;28.30;2.53;;;;;;;20.16;47.22;100871.00;7315214;19;129101;-35
2022/04/17 05:19:46;;;;;;;21.50;2.05;;;;;;;20.40;47.78;100867.63;7313425;19;158296;-34
2022/04/17 05:22:16;;;;;;;22.35;1.98;;;;;;;20.41;48.62;100865.84;7314420;19;157842;-35
2022/04/17 05:24:42;;;;;;;31.40;2.88;;;;;;;20.41;49.87;100863.25;7316288;19;129461;-36
2022/04/17 05:27:08;;;;;;;22.17;2.00;;;;;;;20.42;50.17;100872.72;7315380;19;129121;-34
2022/04/17 05:29:33;;;;;;;21.23;1.88;;;;;;;20.46;49.43;100861.16;7314275;19;130240;-35
2022/04/17 05:32:00;;;;;;;19.15;1.65;;;;;;;20.45;50.47;100859.47;7313440;19;157708;-34
2022/04/17 05:34:25;;;;;;;22.05;2.08;;;;;;;20.48;50.22;100864.47;7313223;19;128789;-40
2022/04/17 05:36:50;;;;;;;28.73;2.67;;;;;;;20.47;51.08;100858.44;7313898;19;131753;-36
2022/04/17 05:39:16;;;;;;;27.13;2.53;;;;;;;20.48;50.45;100865.31;7313604;19;145413;-34
2022/04/17 05:41:41;;;;;;;16.50;1.75;;;;;;;20.48;51.05;100870.56;7315264;19;130853;-35
2022/04/17 05:44:07;;;;;;;22.90;2.10;;;;;;;20.51;51.15;100859.09;7315411;19;129029;-35
2022/04/17 05:46:38;;;;;;;15.63;1.60;;;;;;;20.51;51.83;100856.47;7314426;19;128802;-33
2022/04/17 05:49:07;;;;;;;22.38;2.17;;;;;;;20.22;48.01;100857.53;7313854;19;130137;-34
2022/04/17 05:51:33;;;;;;;18.77;1.65;;;;;;;20.09;48.40;100861.84;7315599;19;130976;-31
2022/04/17 05:53:59;;;;;;;25.00;2.28;;;;;;;20.05;47.94;100861.19;7313087;19;128911;-35
2022/04/17 05:56:25;;;;;;;25.90;2.45;;;;;;;19.97;47.90;100850.44;7314202;19;129559;-30
2022/04/17 05:58:50;;;;;;;25.60;2.30;;;;;;;20.08;47.30;100865.41;7314506;19;129112;-36
2022/04/17 06:01:15;;;;;;;20.00;1.85;;;;;;;20.08;47.44;100866.22;7313932;19;158346;-38
2022/04/17 06:03:41;;;;;;;22.35;2.00;;;;;;;20.09;47.75;100857.47;7316052;19;129107;-31
2022/04/17 06:06:06;;;;;;;18.98;1.77;;;;;;;20.10;47.51;100859.13;7313933;19;129326;-38
2022/04/17 06:08:31;;;;;;;17.08;1.63;;;;;;;20.13;47.25;100856.31;7314545;19;129378;-31
2022/04/17 06:10:58;;;;;;;21.93;2.00;;;;;;;20.10;47.10;100853.06;7310375;19;159949;-34
2022/04/17 06:13:24;;;;;;;22.90;2.08;;;;;;;20.13;47.10;100852.88;7313349;19;129392;-32
2022/04/17 06:15:49;;;;;;;13.57;1.48;;;;;;;20.15;47.66;100851.03;7311266;19;154291;-29
2022/04/17 06:18:14;;;;;;;23.73;2.25;;;;;;;20.28;47.80;100854.53;7311891;19;159385;-36
2022/04/17 06:20:39;;;;;;;20.48;2.00;;;;;;;20.43;47.91;100856.97;7311587;19;135305;-34
2022/04/17 06:23:05;;;;;;;17.92;1.58;;;;;;;20.43;48.48;100859.56;7311972;19;154626;-41
2022/04/17 06:25:31;;;;;;;38.42;3.67;;;;;;;20.42;48.78;100859.69;7312999;19;129064;-37
2022/04/17 06:27:56;;;;;;;20.27;1.93;;;;;;;20.43;49.42;100856.97;7313392;19;130351;-36
2022/04/17 06:30:22;;;;;;;22.30;1.92;;;;;;;20.42;50.54;100850.06;7311886;19;130466;-33
2022/04/17 06:32:48;;;;;;;22.67;1.98;;;;;;;20.45;49.13;100847.25;7313360;19;129715;-31
2022/04/17 06:35:15;;;;;;;25.80;2.40;;;;;;;20.50;49.84;100852.16;7312997;19;129003;-29
2022/04/17 06:37:54;;;;;;;22.63;2.08;;;;;;;20.51;50.70;100854.66;7313166;19;130192;-35
2022/04/17 06:40:24;;;;;;;13.55;1.60;;;;;;;20.48;50.40;100856.66;7311022;19;130965;-32
2022/04/17 06:42:52;;;;;;;10.85;1.40;;;;;;;20.47;50.87;100858.44;7313685;19;129228;-35
2022/04/17 06:45:18;;;;;;;27.75;2.47;;;;;;;20.48;50.26;100860.09;7311916;19;128899;-36
2022/04/17 06:47:44;;;;;;;21.45;1.90;;;;;;;20.33;49.22;100855.88;7312983;19;130185;-34
2022/04/17 06:50:09;;;;;;;18.95;1.90;;;;;;;20.10;48.49;100853.91;7310909;19;129798;-39
2022/04/17 06:52:35;;;;;;;21.00;1.90;;;;;;;20.07;48.17;100853.28;7312892;19;129476;-38
2022/04/17 06:55:00;;;;;;;10.30;1.15;;;;;;;20.03;48.21;100857.03;7312977;19;128673;-36
2022/04/17 06:57:33;;;;;;;28.10;2.40;;;;;;;20.04;47.86;100854.31;7312012;19;129649;-38
2022/04/17 07:00:04;;;;;;;18.23;1.60;;;;;;;20.11;48.19;100862.59;7311422;19;130397;-28
2022/04/17 07:02:29;;;;;;;20.42;1.73;;;;;;;20.09;47.29;100859.25;7312768;19;129045;-38
2022/04/17 07:04:54;;;;;;;29.15;2.65;;;;;;;20.11;47.49;100859.97;7310378;19;154230;-38
2022/04/17 07:07:21;;;;;;;22.30;2.17;;;;;;;20.15;47.23;100858.84;7310230;19;159758;-38
2022/04/17 07:09:46;;;;;;;22.48;2.05;;;;;;;20.14;47.59;100863.22;7311203;19;129361;-32
2022/04/17 07:12:12;;;;;;;26.17;2.40;;;;;;;20.02;47.09;100837.06;7310831;19;154695;-36
2022/04/17 07:14:37;;;;;;;20.17;1.83;;;;;;;20.11;47.13;100854.75;7308646;19;129042;-32
2022/04/17 07:17:03;;;;;;;16.77;1.65;;;;;;;20.18;46.98;100858.69;7312422;19;130308;-33
2022/04/17 07:19:28;;;;;;;31.42;2.95;;;;;;;20.41;47.63;100868.47;7310411;19;129778;-34
2022/04/17 07:21:54;;;;;;;23.50;2.28;;;;;;;20.31;48.32;100849.09;7310754;19;154393;-33
2022/04/17 07:24:19;;;;;;;28.48;2.75;;;;;;;20.38;49.32;100868.63;7310267;19;154623;-33
2022/04/17 07:26:44;;;;;;;22.67;2.17;;;;;;;20.39;49.18;100863.34;7312314;19;130482;-38
2022/04/17 07:29:09;;;;;;;21.02;2.05;;;;;;;20.42;49.69;100864.91;7309745;19;158711;-33
2022/04/17 07:31:35;;;;;;;15.38;1.35;;;;;;;20.45;48.93;100862.06;7310169;19;155414;-41
2022/04/17 07:34:00;;;;;;;18.67;1.67;;;;;;;20.45;50.37;100867.31;7309356;19;154041;-33
2022/04/17 07:36:25;;;;;;;21.58;1.98;;;;;;;20.50;50.45;100862.63;7314510;19;158766;-30
2022/04/17 07:38:50;;;;;;;15.80;1.85;;;;;;;20.47;50.82;100853.22;7318656;19;129620;-38
2022/04/17 07:41:16;;;;;;;24.58;2.33;;;;;;;20.49;50.85;100850.50;7317229;19;153969;-35
2022/04/17 07:43:41;;;;;;;20.02;1.90;;;;;;;20.47;50.98;100857.59;7316698;19;154926;-33
2022/04/17 07:46:06;;;;;;;17.30;1.57;;;;;;;20.46;50.29;100845.47;7315658;19;158477;-33
2022/04/17 07:48:31;;;;;;;14.35;1.35;;;;;;;20.27;49.00;100845.00;7318435;19;130526;-29
2022/04/17 07:50:57;;;;;;;16.63;1.88;;;;;;;19.96;48.32;100835.72;7314702;19;154416;-36
2022/04/17 07:53:22;;;;;;;22.40;1.92;;;;;;;19.95;47.80;100841.03;7317227;19;130992;-36
2022/04/17 07:55:50;;;;;;;22.75;2.20;;;;;;;20.01;48.03;100848.47;7315408;19;150565;-35
2022/04/17 07:58:34;;;;;;;23.80;2.22;;;;;;;19.98;48.21;100843.44;7319404;19;130754;-36
2022/04/17 08:00:59;;;;;;;19.33;1.88;;;;;;;20.07;47.29;100855.88;7315962;19;129300;-38
2022/04/17 08:03:37;;;;;;;25.85;2.40;;;;;;;20.04;47.48;100849.09;7318628;19;128817;-35
2022/04/17 08:06:07;;;;;;;21.23;1.73;;;;;;;20.07;47.23;100848.91;7316894;19;130292;-35
2022/04/17 08:08:37;;;;;;;19.60;1.73;;;;;;;20.10;46.92;100848.69;7318063;19;131489;-31
2022/04/17 08:11:04;;;;;;;29.23;2.35;;;;;;;20.10;48.23;100853.06;7316327;19;129116;-37
2022/04/17 08:13:29;;;;;;;11.52;1.27;;;;;;;20.11;47.43;100853.00;7316486;19;129947;-31
2022/04/17 08:15:54;;;;;;;19.70;1.80;;;;;;;20.07;47.47;100842.81;7316050;19;129278;-34
2022/04/17 08:18:20;;;;;;;19.17;2.00;;;;;;;20.41;48.02;100852.78;7313472;19;158530;-35
2022/04/17 08:20:45;;;;;;;23.23;2.13;;;;;;;20.35;49.06;100847.94;7314424;19;152929;-37
2022/04/17 08:23:11;;;;;;;23.35;2.08;;;;;;;20.34;50.00;100851.50;7316937;19;128985;-31
2022/04/17 08:25:37;;;;;;;19.52;1.67;;;;;;;20.37;49.22;100851.31;7315887;19;129101;-39
2022/04/17 08:28:02;;;;;;;18.48;1.75;;;;;;;20.40;50.07;100845.88;7316927;19;130415;-40
2022/04/17 08:30:30;;;;;;;22.80;2.13;;;;;;;20.44;50.19;100847.34;7315299;19;129626;-33
2022/04/17 08:32:57;;;;;;;18.10;1.70;;;;;;;20.42;50.33;100847.47;7316110;19;128942;-32
2022/04/17 08:35:22;;;;;;;43.78;4.03;;;;;;;20.43;50.80;100845.66;7315733;19;129317;-34
2022/04/17 08:37:48;;;;;;;9.98;1.35;;;;;;;20.40;50.32;100844.09;7316885;19;130500;-34
2022/04/17 08:40:15;;;;;;;26.63;2.37;;;;;;;20.36;50.83;100828.75;7315556;19;129249;-33
2022/04/17 08:42:41;;;;;;;30.52;2.65;;;;;;;20.46;50.48;100838.47;7316596;19;128991;-40
2022/04/17 08:45:10;;;;;;;21.20;2.03;;;;;;;20.35;49.77;100842.72;7316991;19;130008;-35
2022/04/17 08:47:37;;;;;;;20.67;1.90;;;;;;;20.05;48.43;100840.31;7315778;19;129224;-33
2022/04/17 08:50:15;;;;;;;19.60;1.75;;;;;;;20.00;48.34;100833.75;7315810;19;129311;-34
2022/04/17 08:52:44;;;;;;;21.67;2.05;;;;;;;20.01;48.30;100832.78;7315364;19;129242;-37
2022/04/17 08:55:10;;;;;;;28.50;2.40;;;;;;;19.99;47.56;100829.44;7315889;19;129958;-35
2022/04/17 08:57:35;;;;;;;22.75;2.00;;;;;;;19.99;47.55;100829.44;7315583;19;129604;-32
2022/04/17 09:00:05;;;;;;;18.00;1.77;;;;;;;20.03;48.16;100829.13;7314819;19;143782;-34
2022/04/17 09:02:30;;;;;;;21.13;1.73;;;;;;;20.08;47.69;100823.63;7315604;19;128880;-34
2022/04/17 09:04:56;;;;;;;20.15;1.75;;;;;;;20.08;47.65;100818.41;7312490;19;158381;-34
2022/04/17 09:07:21;;;;;;;25.50;2.30;;;;;;;20.11;47.40;100819.06;7315610;19;129462;-34
2022/04/17 09:09:53;;;;;;;20.35;1.90;;;;;;;20.09;47.57;100820.06;7313032;19;154300;-34
2022/04/17 09:12:26;;;;;;;26.83;2.65;;;;;;;20.12;47.50;100810.28;7316159;19;128999;-34
2022/04/17 09:14:53;;;;;;;22.55;2.00;;;;;;;20.32;47.53;100809.84;7313564;19;130234;-33
2022/04/17 09:17:19;;;;;;;20.88;1.92;;;;;;;20.34;47.66;100807.97;7314860;19;130368;-34
2022/04/17 09:19:44;;;;;;;33.17;2.67;;;;;;;20.31;49.04;100794.25;7314546;19;129849;-36
2022/04/17 09:22:10;;;;;;;20.52;1.90;;;;;;;20.34;49.31;100796.66;7315963;19;129170;-37
2022/04/17 09:24:37;;;;;;;25.37;2.10;;;;;;;20.25;50.00;100774.63;7315052;19;130181;-39
2022/04/17 09:27:04;;;;;;;18.15;1.70;;;;;;;20.36;49.60;100786.97;7316100;19;131099;-37
2022/04/17 09:29:32;;;;;;;9.05;1.20;;;;;;;20.38;50.51;100777.22;7315246;19;129130;-32
2022/04/17 09:32:11;;;;;;;18.92;1.70;;;;;;;20.38;50.95;100785.06;7314675;19;128897;-39
2022/04/17 09:34:55;;;;;;;16.27;1.40;;;;;;;20.42;51.36;100773.47;7312662;19;130204;-40
2022/04/17 09:37:27;;;;;;;29.17;2.60;;;;;;;20.38;50.63;100780.69;7314384;19;129835;-40
2022/04/17 09:39:52;;;;;;;20.75;1.92;;;;;;;20.38;50.88;100777.22;7313067;19;129082;-39
2022/04/17 09:42:23;;;;;;;23.77;2.15;;;;;;;20.30;49.53;100771.69;7314391;19;131284;-42
2022/04/17 09:44:55;;;;;;;21.00;1.90;;;;;;;19.99;48.36;100764.19;7314623;19;129786;-41
2022/04/17 09:47:21;;;;;;;9.45;1.23;;;;;;;19.97;47.92;100771.28;7314000;19;130963;-39
2022/04/17 09:49:49;;;;;;;26.47;2.40;;;;;;;19.99;48.40;100756.34;7313711;19;129464;-41
2022/04/17 09:52:14;;;;;;;23.13;2.00;;;;;;;20.00;48.07;100755.44;7313063;19;154639;-38
2022/04/17 09:54:42;;;;;;;19.27;1.70;;;;;;;19.98;47.99;100749.47;7310101;19;158979;-40
2022/04/17 09:57:08;;;;;;;32.15;2.92;;;;;;;20.02;47.41;100753.53;7313029;19;130371;-40
2022/04/17 09:59:33;;;;;;;18.20;1.65;;;;;;;20.03;47.23;100747.41;7312340;19;128974;-41
2022/04/17 10:01:58;;;;;;;25.05;2.03;;;;;;;20.05;47.75;100740.28;7314561;19;129713;-40
2022/04/17 10:04:25;;;;;;;12.43;1.48;;;;;;;20.04;47.10;100744.69;7312509;19;159538;-41
2022/04/17 10:06:57;;;;;;;23.60;2.03;;;;;;;20.05;47.63;100746.34;7313592;19;129207;-40
2022/04/17 10:09:23;;;;;;;25.17;2.47;;;;;;;20.08;47.64;100737.50;7313844;19;129445;-36
2022/04/17 10:11:51;;;;;;;25.67;2.15;;;;;;;20.29;47.42;100738.69;7314229;19;128918;-40
2022/04/17 10:14:16;;;;;;;35.03;3.15;;;;;;;20.26;48.10;100715.41;7311188;19;130823;-38
2022/04/17 10:16:43;;;;;;;16.42;1.80;;;;;;;20.31;48.84;100726.38;7313341;19;130517;-37
2022/04/17 10:19:16;;;;;;;20.73;1.77;;;;;;;20.25;49.95;100717.16;7312892;19;129396;-41
2022/04/17 10:21:42;;;;;;;20.42;1.92;;;;;;;20.31;49.29;100713.31;7314039;19;129117;-39
2022/04/17 10:24:13;;;;;;;34.90;3.13;;;;;;;20.34;50.96;100710.47;7312354;19;129079;-36
2022/04/17 10:26:44;;;;;;;21.13;1.95;;;;;;;20.32;50.95;100717.59;7313513;19;130172;-41
2022/04/17 10:29:15;;;;;;;22.13;1.92;;;;;;;20.35;50.29;100712.16;7312742;19;128951;-41
2022/04/17 10:32:08;;;;;;;20.70;1.83;;;;;;;20.39;51.04;100700.56;7313411;19;128881;-41
2022/04/17 10:34:59;;;;;;;10.05;1.00;;;;;;;20.37;51.23;100699.81;7311206;19;130852;-38
2022/04/17 10:37:33;;;;;;;20.75;1.80;;;;;;;20.37;51.35;100705.03;7312566;19;130392;-41
2022/04/17 10:39:59;;;;;;;19.33;1.77;;;;;;;20.35;51.07;100696.47;7310034;19;154671;-41
2022/04/17 10:42:35;;;;;;;18.55;1.58;;;;;;;20.05;48.41;100685.47;7314152;19;128973;-41
2022/04/17 10:45:05;;;;;;;12.68;1.23;;;;;;;19.97;48.67;100685.16;7312737;19;130346;-39
2022/04/17 10:47:30;;;;;;;17.83;1.73;;;;;;;19.93;48.34;100691.53;7312729;19;130361;-39
2022/04/17 10:49:57;;;;;;;20.45;1.77;;;;;;;19.95;47.53;100697.47;7311336;19;128975;-42
2022/04/17 10:52:31;;;;;;;28.88;2.47;;;;;;;19.94;48.07;100690.56;7313827;19;129238;-40
2022/04/17 10:55:07;;;;;;;10.63;1.02;;;;;;;19.99;47.43;100683.28;7309578;19;130575;-39
2022/04/17 10:57:42;;;;;;;18.25;1.45;;;;;;;19.99;47.74;100685.88;7313075;19;131530;-38
2022/04/17 11:00:26;;;;;;;19.40;1.73;;;;;;;20.00;47.73;100677.13;7311059;19;128994;-39
2022/04/17 11:02:52;;;;;;;23.25;1.95;;;;;;;20.01;47.49;100670.97;7313255;19;129555;-38
2022/04/17 11:08:26;;;;;;;23.13;2.28;;;;;;;20.10;48.54;100659.88;7311597;19;129326;-41
2022/04/17 11:10:53;;;;;;;;;;;;;;;20.27;51.26;100659.59;7313784;19;128818;-39
2022/04/17 11:13:18;;;;;;;22.52;1.88;;;;;;;20.01;48.60;100670.97;7319710;19;128870;-42
2022/04/17 11:15:51;;;;;;;24.52;2.05;;;;;;;19.97;48.53;100672.09;7318430;19;129539;-40
2022/04/17 11:18:17;;;;;;;23.67;2.08;;;;;;;20.00;48.16;100669.31;7320228;19;129667;-39
2022/04/17 11:20:51;;;;;;;26.77;2.20;;;;;;;20.00;48.00;100667.50;7317951;19;128810;-37
2022/04/17 11:23:48;;;;;;;34.63;2.83;;;;;;;20.04;47.67;100655.09;7318442;19;129459;-40